Time;durP1;ratioP1;P1;durP2;ratioP2;P2;SDS_P1;SDS_P2;PMS_P1;PMS_P2;Temp;Humidity;BMP_temperature;BMP_pressure;BME280_temperature;BME280_humidity;BME280_pressure;Samples;Min_cycle;Max_cycle;Signal;HPM_P1;HPM_P2
2022/05/06 00:01:52;;;;;;;40.55;24.15;;;;;;;11.57;97.17;102428.28;5047833;28;20071;-51
2022/05/06 00:04:20;;;;;;;44.63;25.05;;;;;;;11.49;98.96;102423.34;5049964;28;20095;-49
2022/05/06 00:06:49;;;;;;;42.33;25.85;;;;;;;11.53;99.05;102427.53;5051888;28;20049;-53
2022/05/06 00:09:17;;;;;;;43.22;25.10;;;;;;;11.50;98.99;102430.31;5051720;28;20126;-50
2022/05/06 00:11:45;;;;;;;46.05;26.77;;;;;;;11.48;99.36;102426.91;5050779;28;20053;-48
2022/05/06 00:14:14;;;;;;;39.08;24.73;;;;;;;11.45;98.64;102425.25;5048771;28;20073;-48
2022/05/06 00:16:44;;;;;;;38.85;23.52;;;;;;;11.43;99.49;102428.88;5047783;28;20040;-52
2022/05/06 00:19:12;;;;;;;40.00;24.75;;;;;;;11.45;100.00;102435.81;5051453;28;20044;-48
2022/05/06 00:21:40;;;;;;;43.10;25.70;;;;;;;11.39;100.00;102432.56;5051160;28;20560;-51
2022/05/06 00:24:09;;;;;;;43.85;25.63;;;;;;;11.43;100.00;102434.16;5050995;28;20140;-53
2022/05/06 00:26:37;;;;;;;43.28;26.10;;;;;;;11.37;100.00;102439.69;5051566;28;20472;-48
2022/05/06 00:29:05;;;;;;;42.97;25.80;;;;;;;11.31;100.00;102431.09;5050546;28;20041;-50
2022/05/06 00:31:34;;;;;;;45.10;26.35;;;;;;;11.30;100.00;102437.31;5049413;28;20488;-50
2022/05/06 00:34:04;;;;;;;43.97;26.02;;;;;;;11.28;100.00;102439.16;5048160;28;20527;-50
2022/05/06 00:36:33;;;;;;;43.05;26.52;;;;;;;11.25;100.00;102431.38;5050420;28;20068;-51
2022/05/06 00:39:01;;;;;;;44.38;26.45;;;;;;;11.25;100.00;102434.03;5051942;28;20041;-52
2022/05/06 00:41:33;;;;;;;47.08;26.58;;;;;;;11.21;100.00;102432.44;5049776;28;20049;-50
2022/05/06 00:44:01;;;;;;;46.10;26.45;;;;;;;11.28;100.00;102431.25;5047886;28;20144;-51
2022/05/06 00:46:29;;;;;;;40.20;25.77;;;;;;;11.20;100.00;102428.09;5050726;28;20941;-48
2022/05/06 00:48:58;;;;;;;43.08;25.33;;;;;;;11.18;100.00;102427.31;5051744;28;20495;-48
2022/05/06 00:51:28;;;;;;;42.17;25.60;;;;;;;11.20;100.00;102425.44;5051577;28;20045;-50
2022/05/06 00:53:57;;;;;;;40.83;25.00;;;;;;;11.24;100.00;102432.31;5051148;28;20053;-48
2022/05/06 00:56:26;;;;;;;45.90;26.35;;;;;;;11.18;100.00;102429.94;5051464;28;20517;-49
2022/05/06 00:58:54;;;;;;;40.40;24.58;;;;;;;11.14;100.00;102429.22;5048520;28;20056;-49
2022/05/06 01:01:22;;;;;;;46.33;26.08;;;;;;;11.13;100.00;102432.75;5047364;28;20404;-50
2022/05/06 01:03:51;;;;;;;40.80;24.85;;;;;;;11.07;100.00;102429.53;5051070;28;20041;-47
2022/05/06 01:06:19;;;;;;;42.50;24.92;;;;;;;11.07;100.00;102435.66;5055422;28;20383;-47
2022/05/06 01:08:49;;;;;;;42.30;26.45;;;;;;;11.03;100.00;102430.56;5055434;28;20476;-50
2022/05/06 01:11:18;;;;;;;41.90;25.52;;;;;;;10.94;100.00;102442.34;5055027;28;20144;-51
2022/05/06 01:13:49;;;;;;;38.78;24.25;;;;;;;10.84;100.00;102439.25;5054503;28;20076;-47
2022/05/06 01:16:17;;;;;;;42.63;25.42;;;;;;;10.78;100.00;102444.75;5054719;28;20114;-52
2022/05/06 01:18:47;;;;;;;46.13;25.90;;;;;;;10.77;100.00;102443.03;5055033;28;20454;-49
2022/05/06 01:21:23;;;;;;;46.08;24.75;;;;;;;10.72;100.00;102437.97;5055092;28;20053;-50
2022/05/06 01:23:53;;;;;;;44.85;25.95;;;;;;;10.70;100.00;102439.78;5054992;28;20116;-48
2022/05/06 01:26:21;;;;;;;46.28;24.40;;;;;;;10.72;100.00;102442.38;5054743;28;20056;-50
2022/05/06 01:28:50;;;;;;;44.58;25.48;;;;;;;10.73;100.00;102444.06;5054880;28;20048;-47
2022/05/06 01:31:22;;;;;;;40.92;24.38;;;;;;;10.71;100.00;102441.50;5054705;28;20048;-50
2022/05/06 01:33:55;;;;;;;40.90;23.75;;;;;;;10.65;100.00;102442.63;5052409;28;20048;-49
2022/05/06 01:36:25;;;;;;;48.92;25.48;;;;;;;10.58;100.00;102441.16;5049372;28;20053;-47
2022/05/06 01:38:59;;;;;;;47.53;26.17;;;;;;;10.58;100.00;102442.91;5053607;28;20041;-52
2022/05/06 01:41:29;;;;;;;45.28;24.90;;;;;;;10.51;100.00;102447.56;5053912;28;20045;-50
2022/05/06 01:44:02;;;;;;;45.55;26.05;;;;;;;10.46;100.00;102445.13;5050741;28;20877;-50
2022/05/06 01:46:30;;;;;;;44.17;24.77;;;;;;;10.43;100.00;102444.38;5052636;28;20056;-53
2022/05/06 01:48:59;;;;;;;47.15;25.98;;;;;;;10.42;100.00;102448.78;5054418;28;20048;-54
2022/05/06 01:51:28;;;;;;;48.08;25.48;;;;;;;10.40;100.00;102450.63;5054161;28;20083;-47
2022/05/06 01:53:58;;;;;;;46.85;25.63;;;;;;;10.42;100.00;102447.94;5050189;28;20048;-50
2022/05/06 01:56:26;;;;;;;48.45;26.23;;;;;;;10.41;100.00;102456.72;5051579;28;20544;-50
2022/05/06 01:58:55;;;;;;;44.13;24.20;;;;;;;10.45;100.00;102450.44;5052354;28;20053;-47
2022/05/06 02:01:23;;;;;;;47.90;25.50;;;;;;;10.48;100.00;102453.81;5053939;28;20545;-47
2022/05/06 02:06:38;;;;;;;49.10;26.17;;;;;;;10.36;100.00;102448.16;5054125;28;20135;-50
2022/05/06 02:09:08;;;;;;;49.28;26.50;;;;;;;10.40;100.00;102444.50;5054192;28;20037;-49
2022/05/06 02:11:36;;;;;;;47.40;27.02;;;;;;;10.42;100.00;102445.31;5054070;28;20075;-50
2022/05/06 02:14:05;;;;;;;48.85;28.17;;;;;;;10.40;100.00;102444.50;5054020;28;20053;-50
2022/05/06 02:16:33;;;;;;;50.45;27.92;;;;;;;10.35;100.00;102449.94;5052934;28;20125;-50
2022/05/06 02:19:03;;;;;;;49.60;26.80;;;;;;;10.35;100.00;102443.81;5053198;28;20041;-46
2022/05/06 02:21:31;;;;;;;54.47;29.95;;;;;;;10.27;100.00;102447.56;5048422;28;20057;-49
2022/05/06 02:24:00;;;;;;;58.85;31.77;;;;;;;10.32;100.00;102445.63;5051546;28;20114;-46
2022/05/06 02:26:29;;;;;;;52.78;29.92;;;;;;;10.26;100.00;102445.84;5053732;28;20049;-47
2022/05/06 02:28:58;;;;;;;55.72;29.13;;;;;;;10.23;100.00;102440.72;5053701;28;20078;-50
2022/05/06 02:34:16;;;;;;;52.17;29.13;;;;;;;10.19;100.00;102439.13;5054185;28;20436;-49
2022/05/06 02:36:45;;;;;;;52.50;29.15;;;;;;;10.21;100.00;102437.31;5053397;28;20435;-47
2022/05/06 02:39:14;;;;;;;54.58;29.67;;;;;;;10.21;100.00;102442.56;5053200;28;20040;-48
2022/05/06 02:41:44;;;;;;;52.55;29.55;;;;;;;10.17;100.00;102443.59;5054079;28;20600;-48
2022/05/06 02:44:13;;;;;;;51.30;29.58;;;;;;;10.12;100.00;102446.38;5053732;28;20049;-50
2022/05/06 02:46:41;;;;;;;53.67;29.50;;;;;;;10.15;100.00;102448.03;5053633;28;20045;-46
2022/05/06 02:49:09;;;;;;;51.58;29.90;;;;;;;10.14;100.00;102446.31;5053401;28;20103;-50
2022/05/06 02:51:38;;;;;;;55.42;29.33;;;;;;;10.09;100.00;102438.63;5053294;28;20137;-47
2022/05/06 02:54:07;;;;;;;56.53;29.90;;;;;;;10.07;100.00;102440.44;5053751;28;20164;-48
2022/05/06 02:56:35;;;;;;;58.53;31.17;;;;;;;10.00;100.00;102438.09;5052513;28;20462;-49
2022/05/06 02:59:05;;;;;;;62.03;32.80;;;;;;;9.98;100.00;102441.66;5049258;28;20139;-49
2022/05/06 03:01:33;;;;;;;58.85;32.08;;;;;;;9.97;100.00;102439.06;5051435;28;20523;-48
2022/05/06 03:04:02;;;;;;;60.50;32.65;;;;;;;9.91;100.00;102437.53;5053046;28;20057;-51
2022/05/06 03:06:30;;;;;;;60.88;32.25;;;;;;;9.93;100.00;102438.31;5048396;28;20577;-50
2022/05/06 03:08:59;;;;;;;69.38;34.42;;;;;;;9.93;100.00;102440.94;5049433;28;20053;-50
2022/05/06 03:11:28;;;;;;;73.38;34.60;;;;;;;9.91;100.00;102441.91;5053032;28;20534;-51
2022/05/06 03:13:57;;;;;;;71.55;33.38;;;;;;;9.84;100.00;102443.06;5052790;28;20056;-48
2022/05/06 03:16:27;;;;;;;66.32;33.35;;;;;;;9.91;100.00;102448.06;5052673;28;20433;-46
2022/05/06 03:18:55;;;;;;;61.63;31.92;;;;;;;9.86;100.00;102447.34;5052531;28;20053;-48
2022/05/06 03:21:24;;;;;;;60.40;32.38;;;;;;;9.79;100.00;102451.13;5052885;28;20223;-49
2022/05/06 03:23:52;;;;;;;62.33;32.28;;;;;;;9.76;100.00;102443.34;5052646;28;20045;-47
2022/05/06 03:26:20;;;;;;;59.50;32.15;;;;;;;9.79;100.00;102443.25;5052906;28;20361;-47
2022/05/06 03:28:49;;;;;;;55.60;30.70;;;;;;;9.81;100.00;102434.38;5052484;28;20051;-46
2022/05/06 03:31:18;;;;;;;54.95;29.33;;;;;;;9.83;100.00;102434.34;5049064;28;20892;-47
2022/05/06 03:33:49;;;;;;;50.88;28.48;;;;;;;9.74;100.00;102434.66;5048565;28;20048;-52
2022/05/06 03:36:18;;;;;;;51.50;29.27;;;;;;;9.68;100.00;102434.88;5051109;28;20506;-51
2022/05/06 03:38:46;;;;;;;52.47;28.60;;;;;;;9.69;100.00;102432.19;5048573;28;20052;-49
2022/05/06 03:41:14;;;;;;;50.10;29.45;;;;;;;9.62;100.00;102434.19;5050594;28;20037;-48
2022/05/06 03:43:43;;;;;;;49.60;28.17;;;;;;;9.63;100.00;102429.78;5049151;28;20044;-47
2022/05/06 03:46:11;;;;;;;49.53;27.17;;;;;;;9.59;100.00;102442.16;5048356;28;20049;-48
2022/05/06 03:48:39;;;;;;;47.17;29.02;;;;;;;9.53;100.00;102437.16;5052364;28;20065;-46
2022/05/06 03:51:21;;;;;;;46.63;27.85;;;;;;;9.49;100.00;102446.06;5050460;28;20132;-49
2022/05/06 03:53:49;;;;;;;46.10;26.92;;;;;;;9.54;100.00;102440.63;5048129;28;20144;-48
2022/05/06 03:56:18;;;;;;;44.30;26.30;;;;;;;9.48;100.00;102452.22;5051422;28;20057;-46
2022/05/06 03:58:47;;;;;;;45.08;26.70;;;;;;;9.51;100.00;102440.75;5052048;28;20061;-46
2022/05/06 04:01:16;;;;;;;47.15;27.42;;;;;;;9.65;100.00;102441.09;5050927;28;20087;-45
2022/05/06 04:03:44;;;;;;;45.15;26.55;;;;;;;9.54;100.00;102446.72;5048096;28;20106;-47
2022/05/06 04:06:14;;;;;;;44.30;25.30;;;;;;;9.51;100.00;102451.25;5050724;28;20358;-49
2022/05/06 04:08:43;;;;;;;43.67;25.35;;;;;;;9.39;100.00;102450.75;5052164;28;20037;-50
2022/05/06 04:11:12;;;;;;;39.33;24.67;;;;;;;9.33;100.00;102461.47;5051713;28;20067;-52
2022/05/06 04:13:41;;;;;;;41.13;24.30;;;;;;;9.44;100.00;102458.47;5051351;28;20049;-46
2022/05/06 04:16:09;;;;;;;33.95;22.52;;;;;;;9.33;100.00;102460.63;5047773;28;20043;-47
2022/05/06 04:18:38;;;;;;;31.27;21.33;;;;;;;9.34;100.00;102467.56;5050320;28;20522;-45
2022/05/06 04:23:53;;;;;;;35.35;23.10;;;;;;;9.30;100.00;102467.69;5050972;28;20080;-48
2022/05/06 04:26:21;;;;;;;34.70;22.48;;;;;;;9.26;100.00;102457.34;5046289;28;20057;-49
2022/05/06 04:28:49;;;;;;;34.83;22.10;;;;;;;9.24;100.00;102460.03;5048295;28;20518;-47
2022/05/06 04:31:18;;;;;;;35.42;22.00;;;;;;;9.20;100.00;102468.03;5049061;28;20106;-50
2022/05/06 04:33:46;;;;;;;32.88;21.15;;;;;;;9.25;100.00;102460.88;5047303;28;20095;-46
2022/05/06 04:36:14;;;;;;;36.60;21.85;;;;;;;9.35;100.00;102466.66;5051456;28;20048;-47
2022/05/06 04:38:43;;;;;;;36.05;22.05;;;;;;;9.23;100.00;102460.94;5050413;28;20057;-47
2022/05/06 04:41:13;;;;;;;36.13;23.10;;;;;;;9.24;100.00;102461.78;5051698;28;20464;-51
2022/05/06 04:43:41;;;;;;;36.13;22.40;;;;;;;9.23;100.00;102468.81;5053906;28;20126;-49
2022/05/06 04:46:10;;;;;;;37.47;24.15;;;;;;;9.26;100.00;102473.94;5056088;28;20056;-50
2022/05/06 04:48:38;;;;;;;36.85;23.02;;;;;;;9.24;100.00;102470.53;5050686;28;20106;-50
2022/05/06 04:51:06;;;;;;;40.40;25.27;;;;;;;9.32;100.00;102479.91;5050469;28;20057;-50
2022/05/06 04:53:34;;;;;;;35.67;21.85;;;;;;;9.29;100.00;102479.09;5055570;28;20044;-51
2022/05/06 04:56:03;;;;;;;32.45;20.73;;;;;;;9.26;100.00;102480.97;5055590;28;20167;-52
2022/05/06 04:58:33;;;;;;;34.25;22.10;;;;;;;9.35;100.00;102483.25;5055380;28;20037;-48
2022/05/06 05:01:01;;;;;;;38.55;23.95;;;;;;;9.33;100.00;102481.63;5055380;28;20068;-47
2022/05/06 05:03:29;;;;;;;37.70;24.08;;;;;;;9.36;100.00;102489.41;5055230;28;20055;-49
2022/05/06 05:05:58;;;;;;;37.88;23.70;;;;;;;9.36;100.00;102484.16;5053232;28;20580;-50
2022/05/06 05:08:26;;;;;;;39.92;23.48;;;;;;;9.33;100.00;102492.13;5051595;28;20044;-52
2022/05/06 05:11:02;;;;;;;43.53;23.48;;;;;;;9.36;100.00;102492.03;5053936;28;20361;-49
2022/05/06 05:13:38;;;;;;;36.10;21.80;;;;;;;9.25;100.00;102493.22;5086842;28;20052;-47
2022/05/06 05:16:06;;;;;;;34.67;21.15;;;;;;;9.33;100.00;102497.38;5054711;28;20124;-51
2022/05/06 05:18:35;;;;;;;34.08;20.67;;;;;;;9.42;100.00;102497.06;5054631;28;20044;-50
2022/05/06 05:21:04;;;;;;;36.63;21.98;;;;;;;9.43;100.00;102501.41;5055120;28;20579;-51
2022/05/06 05:23:32;;;;;;;31.92;20.40;;;;;;;9.44;100.00;102496.09;5055080;28;20540;-49
2022/05/06 05:26:00;;;;;;;33.55;21.50;;;;;;;9.47;100.00;102497.75;5051766;28;20656;-50
2022/05/06 05:28:29;;;;;;;32.65;19.48;;;;;;;9.49;100.00;102501.22;5050308;28;20112;-53
2022/05/06 05:30:58;;;;;;;31.35;20.08;;;;;;;9.52;100.00;102501.09;5055141;28;20459;-47
2022/05/06 05:33:27;;;;;;;33.30;20.50;;;;;;;9.46;100.00;102510.03;5054775;28;20110;-49
2022/05/06 05:35:55;;;;;;;32.92;19.63;;;;;;;9.51;100.00;102507.25;5050519;28;20056;-47
2022/05/06 05:38:23;;;;;;;32.13;19.75;;;;;;;9.47;100.00;102501.25;5050662;28;20037;-49
2022/05/06 05:40:51;;;;;;;30.77;19.35;;;;;;;9.40;100.00;102501.50;5053900;28;20049;-47
2022/05/06 05:48:52;;;;;;;29.35;18.92;;;;;;;9.66;100.00;102502.38;5054474;28;20136;-49
2022/05/06 05:51:20;;;;;;;30.50;19.33;;;;;;;9.66;100.00;102500.59;5054626;28;20372;-50
2022/05/06 05:53:49;;;;;;;29.95;18.65;;;;;;;9.75;100.00;102507.34;5054396;28;20340;-48
2022/05/06 05:56:17;;;;;;;29.58;19.65;;;;;;;9.77;100.00;102502.88;5054627;28;20426;-48
2022/05/06 05:58:45;;;;;;;30.67;20.95;;;;;;;10.01;100.00;102505.50;5053892;28;20041;-51
2022/05/06 06:01:15;;;;;;;28.52;19.27;;;;;;;9.74;100.00;102505.59;5054579;28;20445;-48
2022/05/06 06:03:43;;;;;;;28.73;18.98;;;;;;;9.79;100.00;102506.31;5054088;28;20037;-47
2022/05/06 06:06:11;;;;;;;29.33;18.85;;;;;;;9.84;100.00;102504.34;5054231;28;20064;-51
2022/05/06 06:08:40;;;;;;;27.23;18.00;;;;;;;9.90;100.00;102498.03;5054188;28;20049;-51
2022/05/06 06:11:08;;;;;;;28.33;18.90;;;;;;;9.91;100.00;102497.09;5054233;28;20448;-49
2022/05/06 06:13:36;;;;;;;28.10;19.33;;;;;;;10.04;100.00;102494.91;5052375;28;20557;-47
2022/05/06 06:16:05;;;;;;;32.38;20.02;;;;;;;10.13;100.00;102497.22;5053883;28;20083;-50
2022/05/06 06:18:35;;;;;;;29.90;19.55;;;;;;;10.20;100.00;102495.19;5050639;28;20492;-49
2022/05/06 06:21:04;;;;;;;30.73;20.75;;;;;;;10.28;100.00;102499.25;5049332;28;20133;-51
2022/05/06 06:23:33;;;;;;;29.80;18.88;;;;;;;10.28;100.00;102496.63;5052112;28;20120;-48
2022/05/06 06:26:01;;;;;;;28.90;20.27;;;;;;;10.42;100.00;102493.50;5049910;28;20057;-50
2022/05/06 06:28:29;;;;;;;32.65;19.65;;;;;;;10.33;100.00;102496.44;5052349;28;20110;-49
2022/05/06 06:30:58;;;;;;;30.83;19.77;;;;;;;10.40;100.00;102502.34;5053842;28;20056;-48
2022/05/06 06:33:26;;;;;;;30.58;19.98;;;;;;;10.57;100.00;102501.72;5053987;28;20115;-49
2022/05/06 06:35:55;;;;;;;32.83;20.77;;;;;;;10.61;100.00;102514.69;5053630;28;20052;-50
2022/05/06 06:38:24;;;;;;;31.55;20.55;;;;;;;10.58;100.00;102512.19;5053560;28;20520;-51
2022/05/06 06:40:53;;;;;;;31.13;21.25;;;;;;;10.64;100.00;102518.97;5053670;28;20045;-48
2022/05/06 06:43:21;;;;;;;29.45;20.13;;;;;;;10.71;100.00;102514.34;5053509;28;20091;-50
2022/05/06 06:45:50;;;;;;;31.80;21.08;;;;;;;10.77;100.00;102524.59;5053358;28;20063;-49
2022/05/06 06:48:18;;;;;;;31.92;19.95;;;;;;;10.81;100.00;102520.94;5053344;28;20464;-52
2022/05/06 06:50:46;;;;;;;32.53;20.42;;;;;;;10.83;100.00;102525.22;5048950;28;20055;-53
2022/05/06 06:53:16;;;;;;;31.38;20.25;;;;;;;10.82;100.00;102530.56;5049659;28;20521;-51
2022/05/06 06:55:44;;;;;;;33.53;20.77;;;;;;;10.91;100.00;102530.19;5051921;28;20056;-50
2022/05/06 06:58:12;;;;;;;30.48;20.48;;;;;;;10.83;100.00;102525.22;5053025;28;20399;-50
2022/05/06 07:00:42;;;;;;;33.72;21.48;;;;;;;10.97;100.00;102531.72;5048919;28;20492;-50
2022/05/06 07:03:11;;;;;;;31.33;20.77;;;;;;;11.07;100.00;102534.84;5050475;28;20049;-48
2022/05/06 07:11:52;;;;;;;32.15;21.50;;;;;;;11.21;100.00;102537.78;5052882;28;20083;-51
2022/05/06 07:14:03;;;;;;;35.08;22.17;;;;;;;11.60;100.00;102541.44;5052732;28;20057;-52
2022/05/06 07:16:31;;;;;;;36.85;23.23;;;;;;;11.75;100.00;102534.66;5052444;28;20510;-49
2022/05/06 07:19:00;;;;;;;34.35;22.35;;;;;;;11.84;100.00;102550.06;5047755;28;20064;-48
2022/05/06 07:21:28;;;;;;;37.33;23.75;;;;;;;11.87;100.00;102549.94;5048352;28;20063;-49
2022/05/06 07:23:58;;;;;;;35.08;23.75;;;;;;;11.76;100.00;102550.41;5053176;28;20041;-47
2022/05/06 07:26:26;;;;;;;35.75;23.35;;;;;;;11.92;100.00;102542.69;5053019;28;20092;-48
2022/05/06 07:28:54;;;;;;;35.08;22.85;;;;;;;12.08;100.00;102540.28;5052797;28;20080;-46
2022/05/06 07:31:23;;;;;;;34.50;24.15;;;;;;;12.25;100.00;102546.56;5052612;28;20433;-50
2022/05/06 07:33:51;;;;;;;35.90;22.45;;;;;;;12.31;100.00;102547.16;5052615;28;20044;-48
2022/05/06 07:36:19;;;;;;;34.25;23.00;;;;;;;12.36;100.00;102549.56;5052558;28;20128;-48
2022/05/06 07:38:48;;;;;;;33.08;21.50;;;;;;;12.41;100.00;102550.22;5052322;28;20107;-48
2022/05/06 07:41:18;;;;;;;34.92;22.92;;;;;;;12.30;100.00;102549.88;5052781;28;20045;-47
2022/05/06 07:43:46;;;;;;;35.67;23.02;;;;;;;12.49;100.00;102552.50;5048867;28;20056;-51
2022/05/06 07:46:14;;;;;;;31.65;22.00;;;;;;;12.76;100.00;102560.06;5049335;28;20492;-49
2022/05/06 07:48:43;;;;;;;35.65;23.40;;;;;;;12.89;100.00;102555.91;5051215;28;20056;-51
2022/05/06 07:51:11;;;;;;;35.05;22.73;;;;;;;13.08;100.00;102557.69;5046880;28;20056;-52
2022/05/06 07:53:39;;;;;;;35.78;23.77;;;;;;;13.16;100.00;102551.06;5050869;28;20051;-50
2022/05/06 07:56:08;;;;;;;34.42;23.25;;;;;;;13.40;100.00;102553.44;5052141;28;20534;-47
2022/05/06 07:58:39;;;;;;;34.03;22.83;;;;;;;13.59;100.00;102568.41;5052158;28;20439;-49
2022/05/06 08:01:10;;;;;;;34.25;22.67;;;;;;;13.76;100.00;102560.47;5052270;28;20045;-51
2022/05/06 08:06:30;;;;;;;34.97;22.38;;;;;;;14.02;100.00;102560.91;5041537;28;20056;-49
2022/05/06 08:08:58;;;;;;;33.03;21.13;;;;;;;14.12;100.00;102550.69;5052069;28;20373;-50
2022/05/06 08:11:27;;;;;;;31.50;20.70;;;;;;;14.21;100.00;102558.13;5052124;28;20126;-49
2022/05/06 08:13:57;;;;;;;30.08;20.63;;;;;;;14.55;99.36;102548.38;5051153;28;20130;-50
2022/05/06 08:16:25;;;;;;;31.02;21.02;;;;;;;14.79;97.71;102550.63;5049731;28;20053;-51
2022/05/06 08:18:53;;;;;;;30.75;20.35;;;;;;;14.92;97.09;102551.63;5047797;28;20049;-52
2022/05/06 08:21:22;;;;;;;28.50;19.83;;;;;;;15.06;94.81;102552.66;5051157;28;20045;-50
2022/05/06 08:23:52;;;;;;;29.15;19.35;;;;;;;15.38;94.69;102559.59;5048125;28;20127;-51
2022/05/06 08:26:21;;;;;;;28.63;18.30;;;;;;;15.66;93.46;102557.09;5049505;28;20048;-50
2022/05/06 08:28:49;;;;;;;26.58;18.50;;;;;;;15.86;91.93;102558.59;5050471;28;20171;-52
2022/05/06 08:31:20;;;;;;;25.98;18.40;;;;;;;16.03;90.06;102558.44;5046219;28;20485;-52
2022/05/06 08:33:49;;;;;;;26.20;17.77;;;;;;;16.32;87.54;102561.06;5046940;28;20052;-51
2022/05/06 08:36:19;;;;;;;25.08;17.08;;;;;;;16.38;87.42;102558.03;5051855;28;20434;-47
2022/05/06 08:38:48;;;;;;;26.00;17.33;;;;;;;16.44;87.28;102559.44;5049545;28;20126;-49
2022/05/06 08:41:17;;;;;;;25.17;17.10;;;;;;;16.44;85.08;102561.25;5046497;28;20104;-53
2022/05/06 08:43:45;;;;;;;23.75;15.25;;;;;;;16.57;84.80;102564.84;5049341;28;20044;-49
2022/05/06 08:51:51;;;;;;;19.85;13.38;;;;;;;16.89;82.59;102549.53;5047959;28;20471;-49
2022/05/06 08:54:20;;;;;;;21.38;14.75;;;;;;;17.19;82.90;102550.25;5047195;28;20076;-48
2022/05/06 08:56:50;;;;;;;20.70;14.38;;;;;;;17.53;80.53;102553.28;5049798;28;20075;-49
2022/05/06 08:59:19;;;;;;;20.58;14.38;;;;;;;17.62;79.31;102551.84;5046342;28;20053;-51
2022/05/06 09:01:47;;;;;;;19.95;13.55;;;;;;;17.84;79.00;102551.22;5048062;28;20730;-51
2022/05/06 09:04:17;;;;;;;17.00;12.30;;;;;;;18.11;77.21;102542.28;5047596;28;20114;-49
2022/05/06 09:06:45;;;;;;;16.45;11.73;;;;;;;18.27;76.19;102542.91;5044890;28;20055;-50
2022/05/06 09:09:18;;;;;;;17.08;12.13;;;;;;;18.40;73.62;102540.19;5050721;28;20069;-48
2022/05/06 09:17:48;;;;;;;16.17;11.98;;;;;;;18.97;72.53;102537.91;5050875;28;20111;-50
2022/05/06 09:20:21;;;;;;;15.00;11.35;;;;;;;19.07;71.23;102537.13;5051081;28;20500;-50
2022/05/06 09:22:51;;;;;;;14.95;11.27;;;;;;;19.50;72.27;102535.66;5050979;28;20110;-51
2022/05/06 09:25:36;;;;;;;14.70;11.05;;;;;;;19.49;70.09;102541.97;5051966;28;20136;-49
2022/05/06 09:28:05;;;;;;;16.52;11.13;;;;;;;19.74;69.27;102540.94;5051145;28;20862;-52
2022/05/06 09:30:34;;;;;;;15.98;11.93;;;;;;;19.74;67.93;102534.72;5051060;28;20116;-53
2022/05/06 09:33:03;;;;;;;15.45;11.75;;;;;;;19.97;69.05;102535.63;5053126;28;20072;-54
2022/05/06 09:35:33;;;;;;;17.33;12.32;;;;;;;20.30;66.66;102538.41;5049036;28;20049;-53
2022/05/06 09:38:03;;;;;;;17.17;11.85;;;;;;;20.42;66.78;102535.63;5053286;28;20041;-51
2022/05/06 09:40:32;;;;;;;16.58;11.65;;;;;;;20.40;66.78;102529.53;5054992;28;20461;-53
2022/05/06 09:43:01;;;;;;;15.38;11.73;;;;;;;20.69;66.74;102528.19;5054907;28;20132;-49
2022/05/06 09:45:32;;;;;;;15.38;10.52;;;;;;;20.84;64.87;102528.75;5054917;28;20490;-48
2022/05/06 09:48:09;;;;;;;16.67;11.45;;;;;;;21.03;63.65;102528.06;5053495;28;20061;-50
2022/05/06 09:50:40;;;;;;;13.93;10.15;;;;;;;21.02;63.94;102529.88;5049628;28;20064;-50
2022/05/06 09:53:18;;;;;;;13.95;10.70;;;;;;;21.47;60.90;102531.47;5049953;28;20060;-54
2022/05/06 09:55:48;;;;;;;14.32;10.20;;;;;;;21.35;62.11;102527.16;5054526;28;20033;-51
2022/05/06 09:58:17;;;;;;;15.23;10.98;;;;;;;21.29;59.88;102520.50;5052685;28;20548;-51
2022/05/06 10:00:46;;;;;;;12.73;9.95;;;;;;;21.59;60.58;102518.91;5049290;28;20535;-53
2022/05/06 10:03:15;;;;;;;15.15;9.02;;;;;;;22.06;59.84;102510.38;5053693;28;20374;-52
2022/05/06 10:05:45;;;;;;;15.00;9.48;;;;;;;22.11;58.94;102513.50;5054441;28;20103;-54
2022/05/06 10:08:16;;;;;;;14.00;8.95;;;;;;;22.25;56.20;102494.38;5054364;28;20045;-51
2022/05/06 10:10:48;;;;;;;11.55;8.65;;;;;;;22.39;55.97;102497.69;5054235;28;20103;-52
2022/05/06 10:13:19;;;;;;;10.68;8.27;;;;;;;22.34;53.97;102489.19;5054339;28;20065;-51
2022/05/06 10:15:49;;;;;;;11.60;8.38;;;;;;;22.20;55.36;102495.78;5054158;28;20064;-54
2022/05/06 10:18:32;;;;;;;14.95;8.55;;;;;;;22.54;55.67;102493.63;5053777;28;20045;-51
2022/05/06 10:21:03;;;;;;;14.48;7.45;;;;;;;22.96;55.06;102492.50;5047225;28;21003;-51
2022/05/06 10:23:48;;;;;;;12.52;7.93;;;;;;;22.70;53.54;102492.19;5051739;28;20051;-51
2022/05/06 10:26:46;;;;;;;10.77;7.43;;;;;;;22.77;52.31;102491.50;5054051;28;20497;-52
2022/05/06 10:32:58;;;;;;;11.63;7.90;;;;;;;23.04;52.02;102489.97;5053708;28;20140;-53
2022/05/06 10:35:38;;;;;;;9.55;6.57;;;;;;;23.22;50.81;102486.56;5052372;28;20084;-50
2022/05/06 10:38:20;;;;;;;8.48;6.80;;;;;;;23.53;50.80;102486.34;5052823;28;20380;-51
2022/05/06 10:40:58;;;;;;;7.95;5.40;;;;;;;23.87;48.85;102483.13;5053389;28;20049;-49
2022/05/06 10:43:54;;;;;;;7.75;5.05;;;;;;;24.28;48.13;102483.63;5053599;28;20444;-51
2022/05/06 10:46:36;;;;;;;7.55;5.20;;;;;;;23.90;46.87;102480.16;5053390;28;20041;-51
2022/05/06 10:49:47;;;;;;;7.50;4.68;;;;;;;24.23;46.75;102477.88;5053530;28;20049;-51
2022/05/06 10:52:41;;;;;;;7.50;4.38;;;;;;;24.47;45.37;102472.75;5053427;28;20048;-51
2022/05/06 10:55:13;;;;;;;6.97;4.25;;;;;;;24.41;44.82;102467.13;5050604;28;20076;-53
2022/05/06 10:57:50;;;;;;;6.60;4.10;;;;;;;24.74;44.64;102475.53;5050057;28;20036;-58
2022/05/06 11:00:20;;;;;;;6.47;4.18;;;;;;;24.74;42.83;102472.84;5053053;28;20053;-55
2022/05/06 11:02:48;;;;;;;6.38;3.38;;;;;;;24.74;44.07;102473.69;5052923;28;20037;-55
2022/05/06 11:05:20;;;;;;;6.75;4.28;;;;;;;25.34;43.89;102472.16;5053211;28;20542;-55
2022/05/06 11:07:50;;;;;;;7.57;4.50;;;;;;;24.98;43.01;102472.22;5052699;28;20543;-54
2022/05/06 11:10:21;;;;;;;8.30;4.32;;;;;;;25.35;42.50;102465.78;5049441;28;20068;-54
2022/05/06 11:12:51;;;;;;;6.63;4.22;;;;;;;25.49;41.67;102467.03;5050071;28;20053;-55
2022/05/06 11:15:21;;;;;;;6.63;4.22;;;;;;;25.73;40.80;102460.09;5052777;28;20055;-55
2022/05/06 11:17:51;;;;;;;5.90;3.60;;;;;;;25.64;41.39;102459.19;5052607;28;20455;-53
2022/05/06 11:20:23;;;;;;;5.05;3.15;;;;;;;26.06;39.52;102450.28;5052607;28;20045;-56
2022/05/06 11:22:56;;;;;;;5.83;4.00;;;;;;;26.28;37.94;102450.69;5052971;28;20840;-51
2022/05/06 11:25:28;;;;;;;6.93;4.10;;;;;;;25.91;38.92;102454.59;5051486;28;20453;-54
2022/05/06 11:27:58;;;;;;;6.80;4.07;;;;;;;25.85;39.93;102456.09;5048723;28;20056;-54
2022/05/06 11:30:29;;;;;;;6.60;4.43;;;;;;;25.70;41.06;102446.91;5051328;28;20099;-56
2022/05/06 11:32:59;;;;;;;6.90;4.53;;;;;;;26.12;40.09;102441.56;5049332;28;20136;-54
2022/05/06 11:35:41;;;;;;;6.32;4.07;;;;;;;26.24;40.41;102449.31;5048352;28;20052;-56
2022/05/06 11:38:10;;;;;;;6.72;3.95;;;;;;;26.41;38.97;102440.25;5052875;28;20053;-55
2022/05/06 11:40:40;;;;;;;6.68;4.18;;;;;;;26.53;37.86;102440.75;5050732;28;20040;-56
2022/05/06 11:43:20;;;;;;;6.80;4.35;;;;;;;26.80;37.27;102436.06;5049347;28;20045;-55
2022/05/06 11:48:42;;;;;;;7.40;4.00;;;;;;;27.52;37.49;102434.47;5052380;28;20052;-54
2022/05/06 11:51:18;;;;;;;6.00;3.83;;;;;;;27.00;37.54;102428.47;5052384;28;20055;-52
2022/05/06 11:53:49;;;;;;;7.63;4.00;;;;;;;26.55;37.85;102432.53;5051178;28;20431;-53
2022/05/06 11:56:22;;;;;;;5.05;3.47;;;;;;;27.21;35.94;102427.91;5052291;28;20496;-54
2022/05/06 11:58:53;;;;;;;6.70;3.95;;;;;;;27.36;36.09;102427.22;5052183;28;20061;-54
2022/05/06 12:01:26;;;;;;;8.48;4.18;;;;;;;26.86;35.65;102421.91;5052131;28;20060;-56
2022/05/06 12:03:59;;;;;;;5.45;3.47;;;;;;;27.34;35.72;102424.69;5052206;28;20045;-54